Time;durP1;ratioP1;P1;durP2;ratioP2;P2;SDS_P1;SDS_P2;PMS_P1;PMS_P2;Temp;Humidity;BMP_temperature;BMP_pressure;BME280_temperature;BME280_humidity;BME280_pressure;Samples;Min_cycle;Max_cycle;Signal;HPM_P1;HPM_P2
2022/01/15 00:02:07;;;;;;;56.28;29.35;;;1.80;99.90;;;;;;5091040;28;20382;-58
2022/01/15 00:04:33;;;;;;;44.90;25.70;;;0.70;99.90;;;;;;5091830;28;20386;-58
2022/01/15 00:06:58;;;;;;;64.57;34.22;;;2.20;99.90;;;;;;5091675;28;20393;-55
2022/01/15 00:09:24;;;;;;;56.93;31.57;;;0.80;99.90;;;;;;5091493;28;20528;-58
2022/01/15 00:11:51;;;;;;;51.17;30.10;;;1.20;99.90;;;;;;5091839;28;20467;-58
2022/01/15 00:14:27;;;;;;;45.70;26.30;;;0.80;99.90;;;;;;5090983;28;20389;-56
2022/01/15 00:17:03;;;;;;;47.97;27.57;;;0.70;99.90;;;;;;5090172;28;20770;-60
2022/01/15 00:19:41;;;;;;;43.53;26.17;;;0.70;99.90;;;;;;5091771;28;20452;-58
2022/01/15 00:22:11;;;;;;;47.87;26.20;;;0.70;99.90;;;;;;5090544;28;20743;-58
2022/01/15 00:24:37;;;;;;;41.35;25.00;;;0.60;99.90;;;;;;5091696;28;20822;-58
2022/01/15 00:27:04;;;;;;;50.50;27.02;;;0.80;99.90;;;;;;5090805;28;20398;-59
2022/01/15 00:29:31;;;;;;;48.85;29.10;;;0.60;99.90;;;;;;5091217;28;20382;-59
2022/01/15 00:31:57;;;;;;;48.92;28.00;;;2.10;99.90;;;;;;5091336;28;20409;-59
2022/01/15 00:34:23;;;;;;;45.85;27.25;;;0.70;99.90;;;;;;5090573;28;20382;-57
2022/01/15 00:36:49;;;;;;;42.45;26.17;;;0.60;99.90;;;;;;5091478;28;20372;-61
2022/01/15 00:39:14;;;;;;;48.53;26.60;;;0.60;99.90;;;;;;5090621;28;20410;-59
2022/01/15 00:41:40;;;;;;;43.83;26.57;;;0.60;99.90;;;;;;5091442;28;20430;-59
2022/01/15 00:44:05;;;;;;;46.17;26.02;;;0.60;99.90;;;;;;5089187;28;20442;-59
2022/01/15 00:46:31;;;;;;;44.67;25.97;;;0.60;99.90;;;;;;5090760;28;20467;-59
2022/01/15 00:48:57;;;;;;;40.43;24.03;;;0.50;99.90;;;;;;5091641;28;20873;-59
2022/01/15 00:51:24;;;;;;;46.97;25.83;;;0.50;99.90;;;;;;5090622;28;20811;-58
2022/01/15 00:53:49;;;;;;;45.83;27.58;;;0.40;99.90;;;;;;5090849;28;20366;-58
2022/01/15 00:56:15;;;;;;;55.43;31.10;;;1.00;99.90;;;;;;5089907;28;20768;-58
2022/01/15 00:58:41;;;;;;;48.17;27.97;;;1.50;99.90;;;;;;5090590;28;20414;-58
2022/01/15 01:01:06;;;;;;;55.13;32.80;;;0.50;99.90;;;;;;5090177;28;20431;-58
2022/01/15 01:03:32;;;;;;;54.55;29.80;;;0.50;99.90;;;;;;5090320;28;20740;-58
2022/01/15 01:05:58;;;;;;;52.87;29.73;;;0.50;99.90;;;;;;5090403;28;20684;-56
2022/01/15 01:08:23;;;;;;;51.72;30.70;;;-0.40;99.90;;;;;;5090369;28;20477;-58
2022/01/15 01:10:53;;;;;;;53.33;30.35;;;2.10;99.90;;;;;;5090526;28;20803;-58
2022/01/15 01:20:00;;;;;;;48.58;28.77;;;0.90;99.90;;;;;;5089760;28;20539;-58
2022/01/15 01:24:26;;;;;;;55.30;32.17;;;0.40;99.90;;;;;;5090303;28;20386;-58
2022/01/15 01:27:06;;;;;;;61.45;34.28;;;0.30;99.90;;;;;;5090093;28;20811;-58
2022/01/15 01:29:40;;;;;;;55.70;31.67;;;0.50;99.90;;;;;;5090221;28;20378;-58
2022/01/15 01:35:06;;;;;;;63.90;35.90;;;0.10;99.90;;;;;;5073620;28;20374;-56
2022/01/15 01:37:37;;;;;;;58.53;34.73;;;1.30;99.90;;;;;;5090117;28;20463;-58
2022/01/15 01:40:18;;;;;;;57.35;34.28;;;0.00;99.90;;;;;;5089123;28;20916;-57
2022/01/15 01:42:54;;;;;;;68.25;36.92;;;0.10;99.90;;;;;;5090185;28;20385;-58
2022/01/15 01:45:19;;;;;;;68.53;37.53;;;1.50;99.90;;;;;;5089137;28;20991;-59
2022/01/15 01:47:45;;;;;;;68.45;40.72;;;0.00;99.90;;;;;;5089783;28;20392;-58
2022/01/15 01:50:17;;;;;;;74.17;40.67;;;1.70;99.90;;;;;;5089000;28;20435;-58
2022/01/15 01:52:46;;;;;;;65.07;38.10;;;1.40;99.90;;;;;;5089951;28;20384;-58
2022/01/15 01:55:13;;;;;;;64.05;36.42;;;1.00;99.90;;;;;;5088934;28;20389;-58
2022/01/15 01:57:40;;;;;;;64.35;36.60;;;0.00;99.90;;;;;;5089873;28;20402;-57
2022/01/15 02:00:11;;;;;;;58.10;33.70;;;0.00;99.90;;;;;;5088894;28;20398;-58
2022/01/15 02:02:36;;;;;;;52.15;30.65;;;0.00;99.90;;;;;;5089262;28;20386;-57
2022/01/15 02:05:03;;;;;;;51.73;30.53;;;-0.10;99.90;;;;;;5087569;28;20378;-55
2022/01/15 02:07:29;;;;;;;49.05;31.00;;;0.00;99.90;;;;;;5089463;28;20386;-58
2022/01/15 02:09:57;;;;;;;46.65;27.50;;;0.00;99.90;;;;;;5089581;28;20478;-58
2022/01/15 02:12:23;;;;;;;54.05;29.60;;;0.00;99.90;;;;;;5088682;28;21229;-58
2022/01/15 02:14:49;;;;;;;45.83;27.20;;;0.80;99.90;;;;;;5089380;28;20394;-58
2022/01/15 02:17:19;;;;;;;41.28;24.65;;;0.00;99.90;;;;;;5087759;28;20400;-58
2022/01/15 02:20:08;;;;;;;38.40;23.80;;;1.40;99.90;;;;;;5088164;28;20394;-57
2022/01/15 02:25:16;;;;;;;44.00;24.97;;;1.90;99.90;;;;;;5088795;28;20372;-58
2022/01/15 02:27:42;;;;;;;43.40;25.70;;;0.40;99.90;;;;;;5089488;28;20425;-58
2022/01/15 02:30:09;;;;;;;38.50;24.47;;;0.20;99.90;;;;;;5088923;28;20785;-58
2022/01/15 02:32:36;;;;;;;41.35;23.90;;;0.20;99.90;;;;;;5089401;28;20386;-58
2022/01/15 02:35:03;;;;;;;37.75;22.77;;;0.20;99.90;;;;;;5089062;28;20804;-55
2022/01/15 02:37:29;;;;;;;37.72;21.50;;;0.20;99.90;;;;;;5088440;28;20390;-57
2022/01/15 02:39:55;;;;;;;40.42;22.83;;;0.10;99.90;;;;;;5089297;28;20724;-58
2022/01/15 02:42:22;;;;;;;38.17;22.63;;;-0.10;99.90;;;;;;5088743;28;21019;-58
2022/01/15 02:44:48;;;;;;;38.80;22.67;;;-0.20;99.90;;;;;;5089133;28;20481;-58
2022/01/15 02:49:58;;;;;;;41.33;23.20;;;0.70;99.90;;;;;;5089107;28;20377;-58
2022/01/15 02:52:24;;;;;;;36.13;22.50;;;-0.50;99.90;;;;;;5088162;28;20381;-58
2022/01/15 02:54:50;;;;;;;36.05;21.70;;;-0.40;99.90;;;;;;5089137;28;20855;-58
2022/01/15 02:57:15;;;;;;;42.67;23.60;;;1.40;99.90;;;;;;5087984;28;20393;-58
2022/01/15 02:59:41;;;;;;;39.37;24.20;;;-0.30;99.90;;;;;;5087718;28;20418;-58
2022/01/15 03:02:07;;;;;;;36.33;22.45;;;-0.10;99.90;;;;;;5088116;28;20847;-58
2022/01/15 03:04:32;;;;;;;38.00;22.52;;;-0.10;99.90;;;;;;5088721;28;20378;-58
2022/01/15 03:06:58;;;;;;;36.25;21.73;;;-0.10;99.90;;;;;;5088444;28;20378;-57
2022/01/15 03:09:24;;;;;;;36.17;21.70;;;-0.20;99.90;;;;;;5087713;28;20417;-58
2022/01/15 03:11:50;;;;;;;41.83;22.90;;;-0.20;99.90;;;;;;5088875;28;20458;-57
2022/01/15 03:14:19;;;;;;;43.78;25.35;;;-0.10;99.90;;;;;;5086669;28;20816;-58
2022/01/15 03:16:45;;;;;;;42.97;22.10;;;0.00;99.90;;;;;;5088463;28;20488;-60
2022/01/15 03:19:10;;;;;;;43.30;24.37;;;0.90;99.90;;;;;;5087675;28;20974;-59
2022/01/15 03:21:36;;;;;;;38.03;21.95;;;-0.10;99.90;;;;;;5088628;28;20881;-59
2022/01/15 03:24:02;;;;;;;39.97;22.85;;;1.20;99.90;;;;;;5088321;28;20374;-56
2022/01/15 03:26:28;;;;;;;44.67;24.08;;;-0.40;99.90;;;;;;5088359;28;20382;-58
2022/01/15 03:28:54;;;;;;;42.80;25.98;;;-0.50;99.90;;;;;;5093015;28;20750;-60
2022/01/15 03:31:19;;;;;;;40.95;23.25;;;-0.50;99.90;;;;;;5091658;28;20386;-59
2022/01/15 03:33:45;;;;;;;40.90;22.43;;;-0.50;99.90;;;;;;5092733;28;20409;-58
2022/01/15 03:36:11;;;;;;;41.80;23.58;;;-0.50;99.90;;;;;;5091947;28;20373;-58
2022/01/15 03:38:37;;;;;;;39.10;23.33;;;-0.60;99.90;;;;;;5092572;28;20474;-58
2022/01/15 03:41:03;;;;;;;39.92;22.95;;;-0.50;99.90;;;;;;5092192;28;20492;-56
2022/01/15 03:43:29;;;;;;;40.17;23.30;;;-0.60;99.90;;;;;;5092228;28;20375;-58
2022/01/15 03:45:55;;;;;;;42.60;22.37;;;-0.60;99.90;;;;;;5092027;28;20696;-58
2022/01/15 03:48:20;;;;;;;40.07;22.77;;;-0.60;99.90;;;;;;5091691;28;20401;-58
2022/01/15 03:50:46;;;;;;;39.05;22.67;;;1.20;99.90;;;;;;5092059;28;20369;-58
2022/01/15 03:53:12;;;;;;;39.40;22.27;;;-0.10;99.90;;;;;;5091511;28;20386;-58
2022/01/15 03:55:37;;;;;;;39.00;22.77;;;-0.60;99.90;;;;;;5092262;28;20379;-58
2022/01/15 03:58:03;;;;;;;36.28;20.70;;;-0.60;99.90;;;;;;5091818;28;20480;-56
2022/01/15 04:00:29;;;;;;;36.55;22.00;;;0.40;99.90;;;;;;5091839;28;20847;-58
2022/01/15 04:02:56;;;;;;;41.42;22.38;;;-0.50;99.90;;;;;;5092075;28;20417;-58
2022/01/15 04:05:22;;;;;;;38.58;22.65;;;0.70;99.90;;;;;;5091425;28;20394;-58
2022/01/15 04:07:48;;;;;;;42.25;22.50;;;-0.60;99.90;;;;;;5092331;28;20401;-58
2022/01/15 04:10:15;;;;;;;41.37;22.90;;;-0.80;99.90;;;;;;5091247;28;20868;-58
2022/01/15 04:12:41;;;;;;;36.37;23.70;;;-0.10;99.90;;;;;;5091796;28;20446;-61
2022/01/15 04:15:09;;;;;;;35.97;22.70;;;-0.80;99.90;;;;;;5090604;28;20398;-58
2022/01/15 04:17:34;;;;;;;40.60;23.20;;;-0.80;99.90;;;;;;5091566;28;20520;-58
2022/01/15 04:20:00;;;;;;;40.45;24.88;;;-0.70;99.90;;;;;;5092015;28;20907;-58
2022/01/15 04:22:26;;;;;;;49.28;27.95;;;-0.60;99.90;;;;;;5090969;28;20374;-58
2022/01/15 04:24:52;;;;;;;48.90;28.03;;;-0.60;99.90;;;;;;5091669;28;20374;-58
2022/01/15 04:27:21;;;;;;;50.70;29.60;;;-0.70;99.90;;;;;;5090833;28;20374;-58
2022/01/15 04:29:48;;;;;;;50.95;30.33;;;-0.70;99.90;;;;;;5091386;28;20418;-59
2022/01/15 04:32:14;;;;;;;51.20;29.30;;;-0.70;99.90;;;;;;5090620;28;20382;-58
2022/01/15 04:34:40;;;;;;;54.40;31.25;;;-0.70;99.90;;;;;;5091321;28;20410;-59
2022/01/15 04:37:14;;;;;;;55.45;31.63;;;-0.70;99.90;;;;;;5090614;28;20398;-57
2022/01/15 04:39:42;;;;;;;54.78;31.13;;;-0.90;99.90;;;;;;5090542;28;20406;-58
2022/01/15 04:42:08;;;;;;;48.10;29.60;;;-0.90;99.90;;;;;;5090616;28;20386;-58
2022/01/15 04:44:34;;;;;;;50.47;29.33;;;-0.80;99.90;;;;;;5091017;28;20424;-58
2022/01/15 04:47:00;;;;;;;57.10;31.17;;;-0.80;99.90;;;;;;5091059;28;20386;-58
2022/01/15 04:49:26;;;;;;;58.17;30.38;;;-0.90;99.90;;;;;;5090341;28;20469;-58
2022/01/15 04:51:51;;;;;;;57.38;28.77;;;-0.40;99.90;;;;;;5090976;28;20847;-58
2022/01/15 04:54:17;;;;;;;75.25;35.03;;;-0.90;99.90;;;;;;5090530;28;20381;-58
2022/01/15 04:56:42;;;;;;;80.87;34.67;;;-0.90;99.90;;;;;;5090900;28;21082;-59
2022/01/15 04:59:10;;;;;;;143.95;39.38;;;-1.10;99.90;;;;;;5088784;28;20444;-60
2022/01/15 05:01:36;;;;;;;104.05;32.40;;;-1.20;99.90;;;;;;5090784;28;20378;-61
2022/01/15 05:04:01;;;;;;;137.03;35.73;;;-1.20;99.90;;;;;;5090947;28;20375;-61
2022/01/15 05:06:27;;;;;;;142.80;36.17;;;-1.20;99.90;;;;;;5088626;28;20382;-58
2022/01/15 05:09:02;;;;;;;123.05;35.65;;;-1.10;99.90;;;;;;5090447;28;20414;-58
2022/01/15 05:11:43;;;;;;;131.85;37.30;;;-1.10;99.90;;;;;;5089959;28;20421;-58
2022/01/15 05:14:11;;;;;;;138.02;41.75;;;-1.10;99.90;;;;;;5089944;28;20386;-58
2022/01/15 05:16:37;;;;;;;145.02;40.53;;;-1.10;99.90;;;;;;5089938;28;20701;-61
2022/01/15 05:19:03;;;;;;;133.77;32.92;;;0.10;99.90;;;;;;5090363;28;20420;-61
2022/01/15 05:21:29;;;;;;;124.97;33.83;;;-1.40;99.90;;;;;;5088750;28;20386;-61
2022/01/15 05:23:54;;;;;;;140.10;36.43;;;-1.40;99.90;;;;;;5090390;28;20730;-59
2022/01/15 05:26:20;;;;;;;91.72;31.73;;;-1.20;99.90;;;;;;5089589;28;20386;-59
2022/01/15 05:28:46;;;;;;;109.97;35.00;;;-1.10;99.90;;;;;;5090271;28;20461;-58
2022/01/15 05:31:12;;;;;;;131.90;37.13;;;-1.10;99.90;;;;;;5089009;28;20380;-59
2022/01/15 05:33:37;;;;;;;158.30;44.03;;;-1.20;99.90;;;;;;5090001;28;20441;-58
2022/01/15 05:36:03;;;;;;;115.93;34.88;;;-1.20;99.90;;;;;;5089680;28;20863;-59
2022/01/15 05:38:29;;;;;;;122.88;37.80;;;-1.30;99.90;;;;;;5089193;28;20414;-61
2022/01/15 05:40:54;;;;;;;202.68;47.50;;;-1.50;99.90;;;;;;5090084;28;20382;-60
2022/01/15 05:43:20;;;;;;;164.03;42.90;;;-1.60;99.90;;;;;;5089266;28;20374;-59
2022/01/15 05:45:46;;;;;;;192.70;47.40;;;-1.50;99.90;;;;;;5089770;28;20433;-59
2022/01/15 05:48:12;;;;;;;127.45;39.22;;;-1.50;99.90;;;;;;5089271;28;20382;-59
2022/01/15 05:50:37;;;;;;;122.05;35.17;;;-1.50;99.90;;;;;;5089867;28;20803;-59
2022/01/15 05:53:03;;;;;;;144.60;40.45;;;-1.40;99.90;;;;;;5088460;28;20378;-60
2022/01/15 05:55:29;;;;;;;161.83;39.97;;;-1.40;99.90;;;;;;5087663;28;20740;-60
2022/01/15 05:57:55;;;;;;;168.30;42.27;;;-1.30;99.90;;;;;;5090314;28;20450;-61
2022/01/15 06:00:21;;;;;;;113.35;35.33;;;-1.40;99.90;;;;;;5088790;28;20528;-60
2022/01/15 06:02:47;;;;;;;190.75;42.85;;;-1.30;99.90;;;;;;5089645;28;20807;-60
2022/01/15 06:05:12;;;;;;;179.83;40.37;;;-1.30;99.90;;;;;;5089135;28;20389;-59
2022/01/15 06:07:38;;;;;;;186.18;42.25;;;-1.30;99.90;;;;;;5089582;28;20465;-59
2022/01/15 06:10:04;;;;;;;168.27;40.75;;;-1.30;99.90;;;;;;5089312;28;20450;-59
2022/01/15 06:12:32;;;;;;;105.95;36.00;;;-1.20;99.90;;;;;;5088881;28;20378;-60
2022/01/15 06:14:58;;;;;;;103.03;35.95;;;-1.10;99.90;;;;;;5089034;28;20378;-59
2022/01/15 06:17:25;;;;;;;147.90;38.20;;;-1.10;99.90;;;;;;5088729;28;20378;-60
2022/01/15 06:19:52;;;;;;;133.52;37.90;;;-1.00;99.90;;;;;;5088525;28;20471;-58
2022/01/15 06:22:18;;;;;;;116.20;33.80;;;-0.90;99.90;;;;;;5088690;28;20370;-60
2022/01/15 06:24:43;;;;;;;163.18;41.40;;;-1.10;99.90;;;;;;5088821;28;20400;-59
2022/01/15 06:27:11;;;;;;;144.45;39.20;;;-1.10;99.90;;;;;;5087980;28;20410;-56
2022/01/15 06:29:38;;;;;;;142.98;36.75;;;-1.20;99.90;;;;;;5088973;28;20414;-59
2022/01/15 06:32:04;;;;;;;177.32;43.30;;;-1.10;99.90;;;;;;5089313;28;20385;-59
2022/01/15 06:34:30;;;;;;;167.90;42.47;;;-1.10;99.90;;;;;;5088962;28;20392;-59
2022/01/15 06:36:55;;;;;;;164.30;39.50;;;-1.00;99.90;;;;;;5089212;28;20389;-60
2022/01/15 06:39:21;;;;;;;133.85;38.33;;;0.40;99.90;;;;;;5082885;28;20412;-59
2022/01/15 06:41:46;;;;;;;149.67;37.30;;;-1.10;99.90;;;;;;5077593;28;20404;-60
2022/01/15 06:44:12;;;;;;;120.53;33.17;;;-1.10;99.90;;;;;;5090633;28;20429;-60
2022/01/15 06:46:38;;;;;;;180.30;40.70;;;0.00;99.90;;;;;;5077701;28;20399;-59
2022/01/15 06:49:03;;;;;;;148.02;38.55;;;-1.10;99.90;;;;;;5077239;28;20406;-60
2022/01/15 06:51:29;;;;;;;102.17;31.90;;;-1.10;99.90;;;;;;5081939;28;20392;-59
2022/01/15 06:53:55;;;;;;;145.90;36.67;;;-1.10;99.90;;;;;;5068578;28;20543;-60
2022/01/15 06:56:20;;;;;;;152.95;37.13;;;0.30;99.90;;;;;;5080996;28;20481;-60
2022/01/15 06:58:46;;;;;;;124.80;35.00;;;-1.00;99.90;;;;;;5068192;28;20477;-60
2022/01/15 07:01:12;;;;;;;111.07;32.13;;;-1.00;99.90;;;;;;5083845;28;20439;-60
2022/01/15 07:03:37;;;;;;;143.77;38.90;;;0.20;99.90;;;;;;5104823;28;20482;-60
2022/01/15 07:06:03;;;;;;;104.65;38.22;;;0.40;99.90;;;;;;5081136;28;20409;-61
2022/01/15 07:08:29;;;;;;;102.70;38.27;;;-1.00;99.90;;;;;;5089943;28;20995;-60
2022/01/15 07:10:54;;;;;;;95.13;35.73;;;-0.70;99.90;;;;;;5086341;28;20395;-60
2022/01/15 07:13:20;;;;;;;95.07;33.08;;;-1.20;99.90;;;;;;5081053;28;20899;-60
2022/01/15 07:15:48;;;;;;;67.70;31.83;;;-1.20;99.90;;;;;;5092769;28;20765;-58
2022/01/15 07:18:16;;;;;;;106.38;31.58;;;-1.10;99.90;;;;;;5083848;28;20408;-60
2022/01/15 07:20:42;;;;;;;76.15;29.33;;;-1.00;99.90;;;;;;5084472;28;20883;-59
2022/01/15 07:23:08;;;;;;;84.70;29.77;;;-1.00;99.90;;;;;;5089495;28;20409;-57
2022/01/15 07:25:34;;;;;;;73.07;31.03;;;-1.00;99.90;;;;;;5090142;28;20388;-60
2022/01/15 07:28:00;;;;;;;85.00;30.95;;;-1.00;99.90;;;;;;5077656;28;20431;-60
2022/01/15 07:30:25;;;;;;;129.05;35.00;;;-1.10;99.90;;;;;;5076625;28;20489;-60
2022/01/15 07:32:51;;;;;;;80.10;30.07;;;0.10;99.90;;;;;;5099308;28;20411;-60
2022/01/15 07:35:18;;;;;;;79.83;32.13;;;-1.20;99.90;;;;;;5077898;28;20382;-60
2022/01/15 07:37:44;;;;;;;91.15;34.33;;;-1.20;99.90;;;;;;5078802;28;20483;-59
2022/01/15 07:40:10;;;;;;;87.82;35.25;;;-1.20;99.90;;;;;;5080926;28;20549;-58
2022/01/15 07:42:38;;;;;;;101.05;34.33;;;-1.20;99.90;;;;;;5081858;28;20379;-60
2022/01/15 07:45:09;;;;;;;59.60;28.43;;;-0.40;99.90;;;;;;5078285;28;20410;-60
2022/01/15 07:47:36;;;;;;;81.72;30.38;;;-1.10;99.90;;;;;;5081678;28;20422;-59
2022/01/15 07:50:02;;;;;;;74.07;28.95;;;0.20;99.90;;;;;;5074393;28;20404;-60
2022/01/15 07:52:28;;;;;;;58.60;27.25;;;-0.90;99.90;;;;;;5077982;28;20400;-60
2022/01/15 07:54:54;;;;;;;76.00;30.75;;;-1.00;99.90;;;;;;5076673;28;20497;-60
2022/01/15 07:57:19;;;;;;;58.40;29.40;;;-0.90;99.90;;;;;;5076683;28;20504;-60
2022/01/15 07:59:45;;;;;;;65.80;30.50;;;-0.90;99.90;;;;;;5081816;28;20829;-60
2022/01/15 08:02:10;;;;;;;51.67;28.02;;;-0.80;99.90;;;;;;5081145;28;20404;-58
2022/01/15 08:04:36;;;;;;;59.27;30.30;;;-0.60;99.90;;;;;;5074584;28;20395;-59
2022/01/15 08:07:02;;;;;;;46.50;26.17;;;-0.30;99.90;;;;;;5076667;28;20769;-56
2022/01/15 08:09:28;;;;;;;48.25;26.60;;;-0.10;99.90;;;;;;5087896;28;20478;-60
2022/01/15 08:11:53;;;;;;;45.55;25.15;;;-0.20;99.90;;;;;;5094428;28;20411;-58
2022/01/15 08:14:19;;;;;;;40.63;24.00;;;0.90;99.90;;;;;;5082921;28;20933;-59
2022/01/15 08:16:44;;;;;;;43.70;24.67;;;0.10;99.90;;;;;;5088022;28;20925;-58
2022/01/15 08:19:10;;;;;;;43.78;25.92;;;0.40;99.90;;;;;;5089699;28;20498;-57
2022/01/15 08:21:36;;;;;;;41.20;24.10;;;0.30;99.90;;;;;;5090116;28;21003;-59
2022/01/15 08:24:01;;;;;;;43.22;25.25;;;0.50;99.90;;;;;;5089251;28;21550;-59
2022/01/15 08:26:27;;;;;;;47.70;25.77;;;0.70;99.90;;;;;;5080460;28;20460;-59
2022/01/15 08:28:53;;;;;;;49.23;25.70;;;2.20;99.90;;;;;;5092790;28;20435;-58
2022/01/15 08:31:20;;;;;;;62.17;28.63;;;1.90;99.90;;;;;;5084473;28;20403;-60
2022/01/15 08:33:45;;;;;;;57.58;27.08;;;2.30;99.90;;;;;;5076613;28;20768;-59
2022/01/15 08:36:11;;;;;;;48.20;28.23;;;1.00;99.90;;;;;;5094823;28;20400;-58
2022/01/15 08:38:37;;;;;;;58.53;29.83;;;1.10;99.90;;;;;;5087638;28;20469;-60
2022/01/15 08:41:02;;;;;;;56.77;27.17;;;1.20;99.90;;;;;;5088656;28;20429;-58
2022/01/15 08:43:28;;;;;;;44.00;24.95;;;1.60;99.90;;;;;;5090901;28;20986;-58
2022/01/15 08:45:54;;;;;;;49.60;25.80;;;0.80;99.90;;;;;;5085802;28;20456;-58
2022/01/15 08:48:19;;;;;;;58.42;25.95;;;1.60;99.90;;;;;;5087308;28;20477;-60
2022/01/15 08:50:48;;;;;;;43.92;23.35;;;1.90;99.90;;;;;;5098104;28;20384;-59
2022/01/15 08:53:17;;;;;;;46.33;24.85;;;2.60;99.90;;;;;;5084159;28;20398;-59
2022/01/15 08:55:43;;;;;;;55.05;27.30;;;1.40;99.90;;;;;;5087378;28;20448;-58
2022/01/15 08:58:10;;;;;;;48.97;25.27;;;1.60;99.90;;;;;;5086322;28;20468;-56
2022/01/15 09:00:35;;;;;;;45.33;25.38;;;1.50;99.90;;;;;;5086012;28;20401;-60
2022/01/15 09:03:02;;;;;;;42.83;24.88;;;1.40;99.90;;;;;;5088206;28;20455;-60
2022/01/15 09:05:29;;;;;;;45.42;24.70;;;1.50;99.90;;;;;;5068855;28;20392;-60
2022/01/15 09:07:56;;;;;;;53.22;24.83;;;3.10;99.90;;;;;;5079168;28;20400;-60
2022/01/15 09:10:21;;;;;;;42.28;24.33;;;2.70;99.90;;;;;;5076273;28;20404;-59
2022/01/15 09:12:47;;;;;;;42.13;23.95;;;1.70;99.90;;;;;;5079284;28;20425;-58
2022/01/15 09:15:14;;;;;;;40.88;23.95;;;1.80;99.90;;;;;;5074823;28;20411;-57
2022/01/15 09:17:41;;;;;;;43.00;24.75;;;2.90;99.90;;;;;;5087180;28;20747;-62
2022/01/15 09:20:07;;;;;;;42.63;23.90;;;1.80;99.90;;;;;;5077357;28;20390;-61
2022/01/15 09:22:33;;;;;;;54.25;24.73;;;1.90;99.90;;;;;;5084325;28;21174;-61
2022/01/15 09:25:00;;;;;;;60.50;25.58;;;1.90;99.90;;;;;;5072380;28;20449;-60
2022/01/15 09:30:15;;;;;;;54.30;27.55;;;1.80;99.90;;;;;;5088141;28;20401;-63
2022/01/15 09:32:47;;;;;;;41.13;24.38;;;1.70;99.90;;;;;;5089107;28;20859;-61
2022/01/15 09:35:14;;;;;;;41.55;24.55;;;1.60;99.90;;;;;;5085029;28;20394;-57
2022/01/15 09:37:41;;;;;;;44.33;26.02;;;1.60;99.90;;;;;;5076231;28;20431;-62
2022/01/15 09:40:09;;;;;;;42.70;24.42;;;1.50;99.90;;;;;;5076870;28;20396;-62
2022/01/15 09:42:36;;;;;;;48.17;25.63;;;1.70;99.90;;;;;;5086266;28;20382;-62
2022/01/15 09:45:04;;;;;;;54.80;25.73;;;1.70;99.90;;;;;;5081133;28;20434;-63
2022/01/15 09:47:31;;;;;;;39.55;23.80;;;1.60;99.90;;;;;;5075826;28;20411;-62
2022/01/15 09:49:58;;;;;;;40.80;23.95;;;1.60;99.90;;;;;;5076726;28;20427;-63
2022/01/15 09:52:24;;;;;;;53.42;24.88;;;3.10;99.90;;;;;;5075661;28;20400;-63
2022/01/15 09:54:51;;;;;;;44.65;23.23;;;2.40;99.90;;;;;;5080747;28;20410;-62
2022/01/15 09:57:17;;;;;;;44.07;23.50;;;1.80;99.90;;;;;;5090417;28;20889;-62
2022/01/15 09:59:43;;;;;;;40.80;23.48;;;1.50;99.90;;;;;;5084687;28;20440;-62
2022/01/15 10:02:09;;;;;;;42.33;22.15;;;1.90;99.90;;;;;;5085704;28;20484;-62
2022/01/15 10:04:35;;;;;;;44.67;23.70;;;1.70;99.90;;;;;;5085856;28;20868;-62
2022/01/15 10:07:09;;;;;;;41.42;24.70;;;1.60;99.90;;;;;;5084910;28;20428;-61
2022/01/15 10:09:35;;;;;;;44.50;25.63;;;2.70;99.90;;;;;;5086594;28;20398;-61
2022/01/15 10:12:01;;;;;;;43.60;25.20;;;1.70;99.90;;;;;;5085846;28;20409;-62
2022/01/15 10:14:31;;;;;;;54.95;26.20;;;2.10;99.90;;;;;;5081798;28;20749;-63
2022/01/15 10:17:01;;;;;;;43.72;23.67;;;2.80;99.90;;;;;;5088317;28;20475;-62
2022/01/15 10:19:32;;;;;;;57.38;24.83;;;2.50;99.90;;;;;;5088156;28;20454;-58
2022/01/15 10:22:13;;;;;;;51.25;25.65;;;2.70;99.90;;;;;;5075754;28;20382;-61
2022/01/15 10:24:41;;;;;;;57.28;24.35;;;2.90;99.90;;;;;;5083532;28;20400;-63
2022/01/15 10:27:21;;;;;;;50.97;23.70;;;3.30;99.90;;;;;;5076319;28;20404;-61
2022/01/15 10:30:00;;;;;;;64.70;26.00;;;2.70;99.90;;;;;;5086140;28;20396;-64
2022/01/15 10:32:28;;;;;;;72.07;26.48;;;2.50;99.90;;;;;;5088461;28;20385;-64
2022/01/15 10:34:54;;;;;;;62.65;25.70;;;2.30;99.90;;;;;;5074185;28;20398;-63
2022/01/15 10:37:23;;;;;;;63.17;25.00;;;2.20;99.90;;;;;;5079838;28;20399;-62
2022/01/15 10:39:59;;;;;;;86.72;26.90;;;2.20;99.90;;;;;;5075012;28;20481;-62
2022/01/15 10:42:26;;;;;;;61.33;25.27;;;2.10;99.90;;;;;;5075198;28;20911;-62
2022/01/15 10:44:53;;;;;;;53.83;25.20;;;2.10;99.90;;;;;;5076237;28;20413;-62
2022/01/15 10:47:22;;;;;;;54.38;25.52;;;2.10;99.90;;;;;;5100864;28;20702;-64
2022/01/15 10:49:49;;;;;;;44.08;23.73;;;2.40;99.90;;;;;;5087036;28;20401;-60
2022/01/15 10:52:19;;;;;;;53.25;25.25;;;2.20;99.90;;;;;;5075269;28;20479;-60
2022/01/15 10:55:08;;;;;;;51.07;24.87;;;2.40;99.90;;;;;;5091372;28;20439;-64
2022/01/15 10:57:53;;;;;;;58.45;24.50;;;2.60;99.90;;;;;;5087263;28;20383;-62
2022/01/15 11:00:21;;;;;;;64.32;24.95;;;3.20;99.90;;;;;;5068227;28;20438;-64
2022/01/15 11:02:50;;;;;;;64.43;25.48;;;2.80;99.90;;;;;;5083373;28;20408;-64
2022/01/15 11:05:23;;;;;;;46.00;25.40;;;2.90;99.90;;;;;;5082661;28;20390;-58
2022/01/15 11:07:48;;;;;;;44.33;23.90;;;2.70;99.90;;;;;;5072942;28;20380;-61
2022/01/15 11:10:15;;;;;;;47.28;24.00;;;3.60;99.90;;;;;;5076062;28;20488;-57
2022/01/15 11:12:40;;;;;;;43.88;25.00;;;3.70;99.90;;;;;;5073754;28;20399;-63
2022/01/15 11:15:07;;;;;;;40.13;23.38;;;4.90;99.90;;;;;;5073051;28;20777;-61
2022/01/15 11:17:33;;;;;;;37.90;21.52;;;4.40;99.90;;;;;;5073671;28;20425;-61
2022/01/15 11:20:03;;;;;;;36.95;23.02;;;4.60;99.90;;;;;;5077354;28;20896;-61
2022/01/15 11:22:32;;;;;;;36.50;21.37;;;4.40;99.90;;;;;;5071852;28;20399;-61
2022/01/15 11:24:58;;;;;;;37.47;22.67;;;4.50;99.90;;;;;;5072483;28;20397;-61
2022/01/15 11:27:29;;;;;;;40.97;23.15;;;4.20;99.90;;;;;;5075940;28;20403;-62
2022/01/15 11:29:58;;;;;;;39.28;22.30;;;4.00;99.90;;;;;;5072832;28;20411;-61
2022/01/15 11:32:28;;;;;;;35.58;20.60;;;4.10;99.90;;;;;;5070431;28;20415;-61
2022/01/15 11:35:05;;;;;;;36.97;21.75;;;4.10;99.90;;;;;;5070018;28;20501;-61
2022/01/15 11:37:42;;;;;;;39.75;22.88;;;4.20;99.90;;;;;;5077612;28;20478;-61
2022/01/15 11:40:46;;;;;;;42.75;24.85;;;4.10;99.90;;;;;;5076998;28;20788;-60
2022/01/15 11:43:31;;;;;;;48.40;23.70;;;4.10;99.90;;;;;;5052471;28;20414;-61
2022/01/15 11:46:01;;;;;;;40.40;23.85;;;4.10;99.90;;;;;;5073858;28;20419;-61
2022/01/15 11:48:30;;;;;;;46.30;24.70;;;3.80;99.90;;;;;;5084144;28;20427;-61
2022/01/15 11:51:14;;;;;;;41.05;24.25;;;3.50;99.90;;;;;;5074972;28;20400;-61
2022/01/15 11:53:57;;;;;;;42.15;26.23;;;2.90;99.90;;;;;;5080844;28;20461;-60
2022/01/15 11:56:29;;;;;;;38.47;23.75;;;2.60;99.90;;;;;;5076740;28;20409;-60
2022/01/15 11:58:57;;;;;;;36.85;23.27;;;3.00;99.90;;;;;;5075113;28;20416;-61
2022/01/15 12:01:38;;;;;;;42.78;24.30;;;3.20;99.90;;;;;;5075849;28;20494;-60
2022/01/15 12:04:24;;;;;;;40.33;22.42;;;3.30;99.90;;;;;;5073299;28;20391;-59
2022/01/15 12:07:05;;;;;;;37.85;23.30;;;3.60;99.90;;;;;;5081737;28;20388;-60
2022/01/15 12:09:45;;;;;;;38.60;23.60;;;3.60;99.90;;;;;;5078113;28;20453;-61
2022/01/15 12:12:20;;;;;;;42.05;23.25;;;3.70;99.90;;;;;;5094115;28;20381;-61
2022/01/15 12:15:04;;;;;;;40.95;24.60;;;3.70;99.90;;;;;;5086407;28;20494;-61
2022/01/15 12:17:31;;;;;;;39.63;23.77;;;3.40;99.90;;;;;;5083241;28;20427;-61
2022/01/15 12:20:03;;;;;;;43.65;23.42;;;3.20;99.90;;;;;;5094471;28;20398;-61
2022/01/15 12:22:46;;;;;;;41.67;24.05;;;2.70;99.90;;;;;;5094507;28;20539;-60
2022/01/15 12:25:17;;;;;;;43.40;24.45;;;2.70;99.90;;;;;;5093406;28;20898;-61
2022/01/15 12:27:58;;;;;;;41.95;23.63;;;4.20;99.90;;;;;;5105657;28;20425;-61
2022/01/15 12:30:27;;;;;;;48.10;24.58;;;2.90;99.90;;;;;;5101636;28;20385;-61
2022/01/15 12:32:55;;;;;;;47.53;25.13;;;3.00;99.90;;;;;;5080963;28;20496;-61
2022/01/15 12:35:23;;;;;;;44.33;23.75;;;3.00;99.90;;;;;;5076839;28;20889;-61
2022/01/15 12:37:55;;;;;;;47.40;24.87;;;3.00;99.90;;;;;;5091988;28;20392;-61
2022/01/15 12:40:22;;;;;;;42.75;24.77;;;3.00;99.90;;;;;;5071183;28;20398;-60
2022/01/15 12:42:59;;;;;;;49.45;26.98;;;3.40;99.90;;;;;;5078186;28;20495;-61
2022/01/15 12:45:26;;;;;;;44.85;25.42;;;2.90;99.90;;;;;;5099434;28;20475;-61
2022/01/15 12:47:52;;;;;;;46.90;25.13;;;3.00;99.90;;;;;;5100614;28;20405;-61
2022/01/15 12:50:18;;;;;;;49.50;27.13;;;3.30;99.90;;;;;;5081476;28;20407;-58
2022/01/15 12:52:44;;;;;;;52.65;27.98;;;3.30;99.90;;;;;;5101114;28;20388;-61
2022/01/15 12:55:10;;;;;;;51.65;28.40;;;3.30;99.90;;;;;;5092699;28;20390;-60